createdAt,value
2022-07-28T00:01:10.788Z,101631.34
2022-07-28T00:03:37.840Z,101625.81
2022-07-28T00:06:05.014Z,101636.41
2022-07-28T00:08:32.006Z,101639.41
2022-07-28T00:10:58.934Z,101631.50
2022-07-28T00:13:25.903Z,101626.19
2022-07-28T00:15:52.971Z,101638.41
2022-07-28T00:18:20.168Z,101633.84
2022-07-28T00:20:47.156Z,101633.78
2022-07-28T00:23:14.214Z,101631.19
2022-07-28T00:25:41.246Z,101619.22
2022-07-28T00:28:08.335Z,101624.16
2022-07-28T00:30:35.330Z,101624.09
2022-07-28T00:33:02.478Z,101617.78
2022-07-28T00:35:32.050Z,101621.09
2022-07-28T00:38:01.127Z,101612.34
2022-07-28T00:40:47.621Z,101611.06
2022-07-28T00:43:15.433Z,101615.47
2022-07-28T00:45:42.916Z,101608.78
2022-07-28T00:48:10.928Z,101610.22
2022-07-28T00:50:40.332Z,101613.25
2022-07-28T00:53:08.931Z,101617.59
2022-07-28T00:56:02.592Z,101605.38
2022-07-28T00:58:23.110Z,101607.22
2022-07-28T01:00:50.202Z,101609.44
2022-07-28T01:03:17.355Z,101604.84
2022-07-28T01:05:59.358Z,101601.00
2022-07-28T01:08:56.798Z,101599.75
2022-07-28T01:12:12.434Z,101595.97
2022-07-28T01:14:49.177Z,101583.31
2022-07-28T01:17:37.523Z,101591.78
2022-07-28T01:20:23.897Z,101594.22
2022-07-28T01:23:12.601Z,101596.38
2022-07-28T01:26:03.828Z,101591.94
2022-07-28T01:28:49.263Z,101601.56
2022-07-28T01:31:22.039Z,101591.78
2022-07-28T01:33:56.775Z,101594.41
2022-07-28T01:36:33.950Z,101600.56
2022-07-28T01:39:02.026Z,101586.31
2022-07-28T01:41:31.231Z,101588.41
2022-07-28T01:44:07.231Z,101586.19
2022-07-28T01:46:36.145Z,101571.06
2022-07-28T01:49:03.911Z,101592.81
2022-07-28T01:51:32.782Z,101583.13
2022-07-28T01:54:01.294Z,101576.06
2022-07-28T01:56:31.302Z,101571.63
2022-07-28T01:59:04.300Z,101573.66
2022-07-28T02:01:36.384Z,101578.59
2022-07-28T02:04:06.373Z,101573.81
2022-07-28T02:06:35.453Z,101568.56
2022-07-28T02:09:05.524Z,101560.06
2022-07-28T02:11:39.735Z,101569.38
2022-07-28T02:14:13.585Z,101571.13
2022-07-28T02:16:48.340Z,101563.53
2022-07-28T02:19:18.492Z,101568.09
2022-07-28T02:21:50.423Z,101557.59
2022-07-28T02:24:22.464Z,101565.06
2022-07-28T02:26:58.976Z,101564.06
2022-07-28T02:30:12.485Z,101560.34
2022-07-28T02:33:05.722Z,101555.34
2022-07-28T02:36:02.377Z,101562.09
2022-07-28T02:38:35.505Z,101566.16
2022-07-28T02:41:17.762Z,101570.00
2022-07-28T02:43:54.117Z,101566.78
2022-07-28T02:46:26.800Z,101564.28
2022-07-28T02:49:02.256Z,101551.50
2022-07-28T02:51:30.372Z,101555.44
2022-07-28T02:53:58.473Z,101557.09
2022-07-28T02:56:26.568Z,101556.72
2022-07-28T02:58:55.021Z,101558.06
2022-07-28T03:01:23.000Z,101547.28
2022-07-28T03:03:52.242Z,101538.31
2022-07-28T03:06:25.396Z,101538.22
2022-07-28T03:08:57.283Z,101547.44
2022-07-28T03:11:24.714Z,101543.75
2022-07-28T03:13:51.757Z,101546.22
2022-07-28T03:16:18.784Z,101546.44
2022-07-28T03:18:45.871Z,101545.19
2022-07-28T03:21:12.990Z,101542.03
2022-07-28T03:23:48.103Z,101537.09
2022-07-28T03:26:33.363Z,101545.91
2022-07-28T03:29:01.459Z,101554.72
2022-07-28T03:31:32.031Z,101547.56
2022-07-28T03:33:59.205Z,101551.28
2022-07-28T03:36:31.654Z,101541.44
2022-07-28T03:39:03.941Z,101553.63
2022-07-28T03:41:33.847Z,101550.91
2022-07-28T03:44:02.658Z,101546.03
2022-07-28T03:46:29.922Z,101543.53
2022-07-28T03:48:57.026Z,101536.72
2022-07-28T03:51:25.608Z,101530.94
2022-07-28T03:53:52.658Z,101544.69
2022-07-28T03:56:19.810Z,101541.53
2022-07-28T03:58:46.789Z,101540.34
2022-07-28T04:01:13.954Z,101533.44
2022-07-28T04:03:43.652Z,101534.13
2022-07-28T04:06:12.992Z,101543.31
2022-07-28T04:08:40.057Z,101546.78
2022-07-28T04:11:07.321Z,101538.16
2022-07-28T04:13:37.030Z,101544.72
2022-07-28T04:16:05.558Z,101550.47
2022-07-28T04:18:32.567Z,101543.44
2022-07-28T04:20:59.798Z,101547.59
2022-07-28T04:23:27.027Z,101560.88
2022-07-28T04:25:54.077Z,101547.50
2022-07-28T04:28:21.062Z,101547.59
2022-07-28T04:30:48.174Z,101543.47
2022-07-28T04:33:15.417Z,101542.72
2022-07-28T04:35:42.411Z,101541.03
2022-07-28T04:38:09.424Z,101539.59
2022-07-28T04:40:36.788Z,101538.53
2022-07-28T04:43:04.047Z,101539.13
2022-07-28T04:45:31.294Z,101541.84
2022-07-28T04:47:58.259Z,101543.81
2022-07-28T04:50:25.434Z,101548.16
2022-07-28T04:52:52.427Z,101548.88
2022-07-28T04:55:19.426Z,101545.75
2022-07-28T04:57:46.497Z,101547.13
2022-07-28T05:00:15.019Z,101556.13
2022-07-28T05:02:44.305Z,101550.63
2022-07-28T05:05:12.305Z,101546.25
2022-07-28T05:07:40.940Z,101546.53
2022-07-28T05:10:11.303Z,101554.44
2022-07-28T05:12:38.715Z,101554.00
2022-07-28T05:15:07.304Z,101546.13
2022-07-28T05:17:34.816Z,101542.78
2022-07-28T05:20:03.219Z,101553.09
2022-07-28T05:22:53.815Z,101553.19
2022-07-28T05:25:23.775Z,101548.22
2022-07-28T05:27:53.023Z,101550.53
2022-07-28T05:30:20.399Z,101541.44
2022-07-28T05:32:49.225Z,101527.06
2022-07-28T05:35:17.057Z,101540.09
2022-07-28T05:37:44.083Z,101545.75
2022-07-28T05:40:14.252Z,101550.28
2022-07-28T05:42:43.838Z,101543.88
2022-07-28T05:45:15.873Z,101539.81
2022-07-28T05:47:49.697Z,101536.19
2022-07-28T05:50:18.432Z,101536.75
2022-07-28T05:52:46.972Z,101539.53
2022-07-28T05:55:20.342Z,101535.41
2022-07-28T05:57:47.556Z,101537.06
2022-07-28T06:00:23.242Z,101536.69
2022-07-28T06:02:51.441Z,101537.53
2022-07-28T06:05:21.579Z,101538.13
2022-07-28T06:07:51.078Z,101531.03
2022-07-28T06:10:21.518Z,101533.47
2022-07-28T06:12:55.185Z,101532.66
2022-07-28T06:15:26.287Z,101534.91
2022-07-28T06:17:55.617Z,101537.78
2022-07-28T06:20:24.043Z,101534.16
2022-07-28T06:22:55.130Z,101533.81
2022-07-28T06:25:26.171Z,101538.97
2022-07-28T06:27:56.107Z,101536.75
2022-07-28T06:30:23.851Z,101530.78
2022-07-28T06:32:51.293Z,101532.47
2022-07-28T06:35:18.955Z,101523.06
2022-07-28T06:37:49.976Z,101520.41
2022-07-28T06:40:19.546Z,101513.88
2022-07-28T06:42:47.979Z,101513.69
2022-07-28T06:45:20.879Z,101525.47
2022-07-28T06:47:49.066Z,101519.06
2022-07-28T06:50:25.055Z,101539.03
2022-07-28T06:52:58.984Z,101535.72
2022-07-28T06:55:34.447Z,101532.97
2022-07-28T06:58:02.470Z,101527.44
2022-07-28T07:00:30.130Z,101529.88
2022-07-28T07:03:00.948Z,101535.72
2022-07-28T07:05:32.103Z,101540.22
2022-07-28T07:07:59.702Z,101530.22
2022-07-28T07:10:27.898Z,101516.13
2022-07-28T07:12:56.460Z,101525.06
2022-07-28T07:15:23.604Z,101520.91
2022-07-28T07:17:52.405Z,101514.38
2022-07-28T07:20:19.628Z,101512.22
2022-07-28T07:22:47.872Z,101499.88
2022-07-28T07:25:18.357Z,101503.34
2022-07-28T07:27:46.464Z,101499.69
2022-07-28T07:30:16.649Z,101499.63
2022-07-28T07:32:44.433Z,101484.03
2022-07-28T07:35:12.686Z,101499.47
2022-07-28T07:37:40.375Z,101484.22
2022-07-28T07:40:08.791Z,101481.28
2022-07-28T07:42:36.073Z,101488.63
2022-07-28T07:45:03.712Z,101478.59
2022-07-28T07:47:31.573Z,101483.16
2022-07-28T07:50:03.921Z,101489.22
2022-07-28T07:52:33.497Z,101494.00
2022-07-28T07:55:00.486Z,101497.47
2022-07-28T07:57:27.504Z,101495.63
2022-07-28T07:59:54.428Z,101501.16
2022-07-28T08:02:21.478Z,101496.13
2022-07-28T08:04:48.874Z,101491.44
2022-07-28T08:07:16.245Z,101484.69
2022-07-28T08:09:43.756Z,101496.44
2022-07-28T08:12:10.682Z,101482.28
2022-07-28T08:14:37.580Z,101482.50
2022-07-28T08:17:05.642Z,101481.97
2022-07-28T08:19:33.039Z,101481.56
2022-07-28T08:22:02.451Z,101479.69
2022-07-28T08:24:33.363Z,101483.19
2022-07-28T08:27:02.373Z,101482.28
2022-07-28T08:29:29.535Z,101484.56
2022-07-28T08:31:57.150Z,101476.53
2022-07-28T08:34:31.489Z,101476.94
2022-07-28T08:37:05.489Z,101478.00
2022-07-28T08:39:36.638Z,101472.63
2022-07-28T08:42:07.501Z,101472.44
2022-07-28T08:45:02.435Z,101481.63
2022-07-28T08:47:58.609Z,101481.16
2022-07-28T08:50:24.428Z,101477.19
2022-07-28T08:52:53.526Z,101474.88
2022-07-28T08:55:31.526Z,101479.28
2022-07-28T08:58:00.987Z,101475.88
2022-07-28T09:00:28.678Z,101473.63
2022-07-28T09:02:56.538Z,101473.72
2022-07-28T09:05:24.766Z,101471.31
2022-07-28T09:07:55.649Z,101470.56
2022-07-28T09:10:23.328Z,101472.78
2022-07-28T09:12:50.567Z,101465.00
2022-07-28T09:15:17.773Z,101467.50
2022-07-28T09:17:45.004Z,101466.97
2022-07-28T09:20:13.642Z,101464.75
2022-07-28T09:23:05.746Z,101456.47
2022-07-28T09:26:11.080Z,101456.59
2022-07-28T09:29:08.563Z,101444.66
2022-07-28T09:31:35.624Z,101447.97
2022-07-28T09:34:05.932Z,101450.19
2022-07-28T09:36:41.931Z,101441.78
2022-07-28T09:39:10.535Z,101444.78
2022-07-28T09:41:49.170Z,101447.06
2022-07-28T09:44:21.038Z,101440.22
2022-07-28T09:46:48.888Z,101446.25
2022-07-28T09:49:16.289Z,101447.94
2022-07-28T09:51:59.330Z,101438.47
2022-07-28T09:54:26.303Z,101444.69
2022-07-28T09:56:54.644Z,101431.94
2022-07-28T09:59:25.944Z,101442.97
2022-07-28T10:02:01.564Z,101442.34
2022-07-28T10:04:39.903Z,101431.28
2022-07-28T10:07:13.578Z,101429.41
2022-07-28T10:09:41.582Z,101427.75
2022-07-28T10:12:15.223Z,101421.94
2022-07-28T10:14:42.300Z,101418.28
2022-07-28T10:17:10.694Z,101414.13
2022-07-28T10:19:38.131Z,101416.00
2022-07-28T10:22:05.860Z,101422.69
2022-07-28T10:24:37.919Z,101419.63
2022-07-28T10:27:13.454Z,101430.41
2022-07-28T10:29:43.698Z,101423.22
2022-07-28T10:32:10.881Z,101428.91
2022-07-28T10:34:54.399Z,101424.81
2022-07-28T10:37:24.371Z,101421.84
2022-07-28T10:40:09.790Z,101427.25
2022-07-28T10:42:40.908Z,101419.59
2022-07-28T10:45:13.189Z,101423.72
2022-07-28T10:47:40.121Z,101426.56
2022-07-28T10:50:08.702Z,101425.13
2022-07-28T10:52:47.315Z,101396.50
2022-07-28T10:55:52.569Z,101409.31
2022-07-28T10:58:25.902Z,101420.25
2022-07-28T11:00:57.214Z,101414.88
2022-07-28T11:03:45.033Z,101411.59
2022-07-28T11:06:45.850Z,101406.56
2022-07-28T11:09:15.686Z,101405.81
2022-07-28T11:11:54.749Z,101408.16
2022-07-28T11:14:27.858Z,101414.81
2022-07-28T11:17:23.909Z,101411.31
2022-07-28T11:22:43.746Z,101410.53
2022-07-28T11:25:19.128Z,101406.81
2022-07-28T11:27:51.909Z,101401.69
2022-07-28T11:30:19.435Z,101398.22
2022-07-28T11:32:55.093Z,101395.00
2022-07-28T11:35:26.632Z,101398.28
2022-07-28T11:38:02.443Z,101383.22
2022-07-28T11:40:46.872Z,101375.19
2022-07-28T11:43:35.541Z,101375.03
2022-07-28T11:46:07.647Z,101379.81
2022-07-28T11:48:40.009Z,101381.84
2022-07-28T11:51:07.011Z,101378.50
2022-07-28T11:53:48.558Z,101382.56
2022-07-28T11:56:37.240Z,101376.84
2022-07-28T11:59:07.047Z,101379.34
2022-07-28T12:01:36.871Z,101386.56
2022-07-28T12:04:17.816Z,101373.41
2022-07-28T12:06:51.182Z,101382.88
2022-07-28T12:09:23.464Z,101369.22
2022-07-28T12:11:55.349Z,101373.88
2022-07-28T12:14:22.913Z,101373.75
2022-07-28T12:16:52.274Z,101365.25
2022-07-28T12:19:21.576Z,101364.91
2022-07-28T12:21:55.231Z,101359.69
2022-07-28T12:24:45.110Z,101366.38
2022-07-28T12:27:14.707Z,101363.78
2022-07-28T12:29:42.220Z,101367.91
2022-07-28T12:32:10.135Z,101360.13
2022-07-28T12:34:40.551Z,101354.91
2022-07-28T12:37:12.428Z,101357.91
2022-07-28T12:39:42.162Z,101363.50
2022-07-28T12:42:12.250Z,101361.06
2022-07-28T12:44:44.383Z,101344.84
2022-07-28T12:47:14.406Z,101345.16
2022-07-28T12:49:43.865Z,101352.72
2022-07-28T12:52:24.870Z,101344.56
2022-07-28T12:54:55.858Z,101349.69
2022-07-28T12:57:49.433Z,101347.28
2022-07-28T13:00:24.489Z,101339.88
2022-07-28T13:02:56.496Z,101343.84
2022-07-28T13:05:57.632Z,101344.06
2022-07-28T13:08:27.616Z,101345.16
2022-07-28T13:10:58.844Z,101336.50
2022-07-28T13:13:26.810Z,101349.75
2022-07-28T13:16:21.364Z,101344.78
2022-07-28T13:18:53.441Z,101335.97
2022-07-28T13:21:57.130Z,101337.59
2022-07-28T13:24:24.556Z,101337.03
2022-07-28T13:26:51.891Z,101331.19
2022-07-28T13:29:19.751Z,101336.50
2022-07-28T13:31:46.745Z,101328.22
2022-07-28T13:34:14.340Z,101329.03
2022-07-28T13:36:42.219Z,101310.97
2022-07-28T13:39:13.912Z,101324.97
2022-07-28T13:41:57.048Z,101328.97
2022-07-28T13:44:30.298Z,101319.06
2022-07-28T13:46:58.987Z,101311.94
2022-07-28T13:49:34.444Z,101309.16
2022-07-28T13:52:02.399Z,101319.72
2022-07-28T13:54:29.489Z,101327.22
2022-07-28T13:56:56.637Z,101311.75
2022-07-28T13:59:26.431Z,101325.34
2022-07-28T14:01:55.396Z,101308.81
2022-07-28T14:04:22.778Z,101309.25
2022-07-28T14:06:54.161Z,101311.44
2022-07-28T14:09:21.575Z,101314.50
2022-07-28T14:11:54.759Z,101308.16
2022-07-28T14:14:24.627Z,101308.34
2022-07-28T14:16:54.570Z,101311.28
2022-07-28T14:19:38.280Z,101312.94
2022-07-28T14:22:13.130Z,101309.75
2022-07-28T14:24:41.831Z,101312.56
2022-07-28T14:27:10.489Z,101311.34
2022-07-28T14:29:38.442Z,101306.44
2022-07-28T14:32:06.435Z,101300.28
2022-07-28T14:34:34.331Z,101298.63
2022-07-28T14:37:03.430Z,101304.75
2022-07-28T14:39:36.162Z,101307.34
2022-07-28T14:42:04.223Z,101296.31
2022-07-28T14:44:31.139Z,101292.00
2022-07-28T14:46:58.249Z,101292.78
2022-07-28T14:49:25.360Z,101290.13
2022-07-28T14:51:52.630Z,101293.44
2022-07-28T14:54:19.817Z,101299.31
2022-07-28T14:56:46.759Z,101292.72
2022-07-28T14:59:13.674Z,101291.47
2022-07-28T15:01:40.767Z,101292.28
2022-07-28T15:04:10.005Z,101288.50
2022-07-28T15:06:36.943Z,101300.56
2022-07-28T15:09:04.270Z,101301.69
2022-07-28T15:11:31.254Z,101289.78
2022-07-28T15:13:59.348Z,101289.31
2022-07-28T15:16:26.524Z,101302.16
2022-07-28T15:18:54.320Z,101303.22
2022-07-28T15:21:21.291Z,101300.53
2022-07-28T15:23:48.514Z,101288.72
2022-07-28T15:26:15.623Z,101285.88
2022-07-28T15:28:42.794Z,101287.28
2022-07-28T15:31:10.063Z,101293.59
2022-07-28T15:33:41.091Z,101296.03
2022-07-28T15:36:15.061Z,101296.50
2022-07-28T15:38:42.039Z,101296.84
2022-07-28T15:41:18.161Z,101292.19
2022-07-28T15:43:45.430Z,101295.44
2022-07-28T15:46:14.374Z,101299.22
2022-07-28T15:48:44.251Z,101302.88
2022-07-28T15:51:11.739Z,101301.25
2022-07-28T15:53:39.585Z,101294.56
2022-07-28T15:56:06.787Z,101294.34
2022-07-28T15:58:34.149Z,101292.59
2022-07-28T16:01:02.013Z,101295.03
2022-07-28T16:03:30.433Z,101299.47
2022-07-28T16:05:58.817Z,101291.09
2022-07-28T16:08:26.431Z,101299.47
2022-07-28T16:10:54.292Z,101290.22
2022-07-28T16:13:36.152Z,101286.63
2022-07-28T16:16:07.608Z,101301.25
2022-07-28T16:18:36.639Z,101284.19
2022-07-28T16:21:06.533Z,101293.09
2022-07-28T16:23:34.295Z,101297.59
2022-07-28T16:26:01.434Z,101296.50
2022-07-28T16:28:28.684Z,101293.09
2022-07-28T16:30:58.146Z,101293.25
2022-07-28T16:33:25.338Z,101289.56
2022-07-28T16:35:52.390Z,101299.91
2022-07-28T16:38:20.540Z,101298.81
2022-07-28T16:40:47.599Z,101294.28
2022-07-28T16:43:15.715Z,101296.13
2022-07-28T16:45:42.823Z,101287.16
2022-07-28T16:48:10.197Z,101293.53
2022-07-28T16:50:37.374Z,101290.81
2022-07-28T16:53:08.858Z,101303.28
2022-07-28T16:55:36.524Z,101299.25
2022-07-28T16:58:04.881Z,101295.16
2022-07-28T17:00:31.863Z,101300.28
2022-07-28T17:02:59.101Z,101296.50
2022-07-28T17:05:26.079Z,101294.38
2022-07-28T17:07:53.164Z,101290.84
2022-07-28T17:10:21.145Z,101288.06
2022-07-28T17:12:56.422Z,101284.38
2022-07-28T17:15:23.706Z,101290.06
2022-07-28T17:17:52.353Z,101297.25
2022-07-28T17:20:21.079Z,101285.53
2022-07-28T17:22:49.819Z,101300.06
2022-07-28T17:25:47.293Z,101300.31
2022-07-28T17:28:07.144Z,101302.38
2022-07-28T17:30:34.478Z,101302.13
2022-07-28T17:33:08.418Z,101310.78
2022-07-28T17:35:38.622Z,101311.00
2022-07-28T17:38:11.500Z,101306.13
2022-07-28T17:40:41.006Z,101307.34
2022-07-28T17:43:11.868Z,101311.28
2022-07-28T17:45:38.862Z,101306.34
2022-07-28T17:48:06.449Z,101320.72
2022-07-28T17:50:33.429Z,101318.84
2022-07-28T17:53:01.750Z,101311.44
2022-07-28T17:55:57.853Z,101304.72
2022-07-28T17:58:33.326Z,101316.84
2022-07-28T18:01:12.411Z,101316.69
2022-07-28T18:03:56.929Z,101321.31
2022-07-28T18:06:34.734Z,101317.47
2022-07-28T18:09:10.337Z,101308.16
2022-07-28T18:11:56.525Z,101311.19
2022-07-28T18:14:27.516Z,101315.94
2022-07-28T18:16:55.365Z,101305.97
2022-07-28T18:19:23.557Z,101315.56
2022-07-28T18:21:51.565Z,101320.97
2022-07-28T18:24:21.618Z,101309.03
2022-07-28T18:26:53.641Z,101313.47
2022-07-28T18:29:22.318Z,101324.22
2022-07-28T18:31:51.660Z,101325.19
2022-07-28T18:34:20.803Z,101324.00
2022-07-28T18:36:50.868Z,101328.09
2022-07-28T18:39:17.924Z,101334.00
2022-07-28T18:41:46.234Z,101342.50
2022-07-28T18:44:17.006Z,101332.34
2022-07-28T18:46:46.606Z,101337.09
2022-07-28T18:49:14.393Z,101333.59
2022-07-28T18:51:45.391Z,101331.69
2022-07-28T18:54:17.491Z,101335.50
2022-07-28T18:56:47.446Z,101338.81
2022-07-28T18:59:15.250Z,101335.78
2022-07-28T19:01:42.931Z,101337.28
2022-07-28T19:04:10.334Z,101333.34
2022-07-28T19:06:38.470Z,101351.78
2022-07-28T19:09:05.851Z,101352.69
2022-07-28T19:11:33.635Z,101354.72
2022-07-28T19:14:01.770Z,101350.00
2022-07-28T19:16:30.175Z,101357.91
2022-07-28T19:19:00.951Z,101360.13
2022-07-28T19:21:29.165Z,101369.56
2022-07-28T19:23:56.121Z,101366.88
2022-07-28T19:26:24.220Z,101372.84
2022-07-28T19:28:51.375Z,101371.53
2022-07-28T19:31:18.300Z,101382.47
2022-07-28T19:33:46.494Z,101370.28
2022-07-28T19:36:14.012Z,101375.63
2022-07-28T19:38:42.495Z,101378.25
2022-07-28T19:41:13.826Z,101375.75
2022-07-28T19:43:42.194Z,101383.59
2022-07-28T19:46:10.243Z,101385.91
2022-07-28T19:48:38.024Z,101377.56
2022-07-28T19:51:07.074Z,101380.03
2022-07-28T19:53:35.693Z,101391.53
2022-07-28T19:56:08.992Z,101387.16
2022-07-28T19:58:37.039Z,101387.19
2022-07-28T20:01:05.641Z,101392.66
2022-07-28T20:04:01.057Z,101402.53
2022-07-28T20:06:24.792Z,101405.75
2022-07-28T20:08:54.239Z,101406.94
2022-07-28T20:11:21.659Z,101400.84
2022-07-28T20:13:49.927Z,101406.03
2022-07-28T20:16:18.195Z,101412.19
2022-07-28T20:18:46.527Z,101413.56
2022-07-28T20:21:14.514Z,101415.78
2022-07-28T20:23:42.483Z,101411.19
2022-07-28T20:26:10.202Z,101414.94
2022-07-28T20:28:38.097Z,101418.13
2022-07-28T20:31:07.134Z,101416.81
2022-07-28T20:33:34.228Z,101422.03
2022-07-28T20:36:03.441Z,101416.97
2022-07-28T20:38:30.373Z,101424.06
2022-07-28T20:40:58.379Z,101413.19
2022-07-28T20:43:25.403Z,101414.75
2022-07-28T20:46:05.688Z,101418.38
2022-07-28T20:48:33.020Z,101409.03
2022-07-28T20:51:00.289Z,101412.19
2022-07-28T20:53:27.640Z,101417.31
2022-07-28T20:55:54.683Z,101422.88
2022-07-28T20:58:21.609Z,101417.44
2022-07-28T21:00:51.014Z,101428.47
2022-07-28T21:03:18.334Z,101427.09
2022-07-28T21:05:45.334Z,101423.19
2022-07-28T21:08:16.218Z,101420.22
2022-07-28T21:10:45.472Z,101424.75
2022-07-28T21:13:12.546Z,101426.16
2022-07-28T21:15:40.054Z,101433.94
2022-07-28T21:18:07.061Z,101415.69
2022-07-28T21:20:34.325Z,101427.94
2022-07-28T21:23:01.320Z,101423.63
2022-07-28T21:25:31.865Z,101418.50
2022-07-28T21:28:17.683Z,101414.03
2022-07-28T21:30:45.434Z,101420.63
2022-07-28T21:33:13.411Z,101414.88
2022-07-28T21:35:50.066Z,101416.63
2022-07-28T21:38:17.047Z,101423.53
2022-07-28T21:40:44.051Z,101419.91
2022-07-28T21:43:11.025Z,101421.88
2022-07-28T21:45:38.037Z,101427.91
2022-07-28T21:48:05.473Z,101422.78
2022-07-28T21:50:32.443Z,101426.47
2022-07-28T21:53:01.918Z,101432.84
2022-07-28T21:55:28.953Z,101417.75
2022-07-28T21:57:56.089Z,101424.53
2022-07-28T22:00:23.366Z,101423.25
2022-07-28T22:02:50.513Z,101428.38
2022-07-28T22:05:18.311Z,101430.56
2022-07-28T22:07:57.244Z,101428.00
2022-07-28T22:10:25.647Z,101435.34
2022-07-28T22:12:52.648Z,101434.25
2022-07-28T22:15:19.759Z,101431.31
2022-07-28T22:17:46.676Z,101435.16
2022-07-28T22:20:13.728Z,101447.41
2022-07-28T22:22:41.024Z,101441.47
2022-07-28T22:25:08.720Z,101443.59
2022-07-28T22:27:35.718Z,101440.88
2022-07-28T22:30:03.083Z,101446.59
2022-07-28T22:32:30.165Z,101451.59
2022-07-28T22:34:59.954Z,101449.38
2022-07-28T22:37:27.017Z,101444.34
2022-07-28T22:39:54.065Z,101446.31
2022-07-28T22:42:21.085Z,101441.41
2022-07-28T22:44:48.597Z,101443.66
2022-07-28T22:47:15.945Z,101446.00
2022-07-28T22:49:42.904Z,101443.53
2022-07-28T22:52:09.823Z,101444.88
2022-07-28T22:57:26.719Z,101437.41
2022-07-28T22:59:54.306Z,101445.34
2022-07-28T23:02:21.332Z,101437.59
2022-07-28T23:04:51.784Z,101442.78
2022-07-28T23:07:19.183Z,101437.34
2022-07-28T23:09:46.643Z,101436.06
2022-07-28T23:12:14.601Z,101432.44
2022-07-28T23:14:41.713Z,101435.97
2022-07-28T23:17:08.688Z,101430.81
2022-07-28T23:19:35.771Z,101429.28
2022-07-28T23:22:02.959Z,101433.03
2022-07-28T23:24:29.992Z,101426.84
2022-07-28T23:26:57.065Z,101427.50
2022-07-28T23:29:24.039Z,101431.28
2022-07-28T23:31:51.318Z,101436.13
2022-07-28T23:34:19.019Z,101427.28
2022-07-28T23:36:47.989Z,101419.13
2022-07-28T23:39:15.128Z,101422.81
2022-07-28T23:41:42.180Z,101432.44
2022-07-28T23:44:09.324Z,101426.41
2022-07-28T23:46:36.424Z,101419.28
2022-07-28T23:49:05.238Z,101424.53
2022-07-28T23:51:46.934Z,101434.78
2022-07-28T23:54:16.194Z,101426.25
2022-07-28T23:56:43.859Z,101424.19
2022-07-28T23:59:14.095Z,101428.31
